createdAt,value
2019-03-17T00:00:16.761Z,10.72
2019-03-17T00:02:45.387Z,10.71
2019-03-17T00:05:14.234Z,10.74
2019-03-17T00:07:42.864Z,10.79
2019-03-17T00:10:11.501Z,10.81
2019-03-17T00:12:40.098Z,10.86
2019-03-17T00:15:08.936Z,10.85
2019-03-17T00:17:37.526Z,10.80
2019-03-17T00:20:07.414Z,10.87
2019-03-17T00:22:36.036Z,10.97
2019-03-17T00:25:09.583Z,11.11
2019-03-17T00:27:36.063Z,11.17
2019-03-17T00:30:07.232Z,11.21
2019-03-17T00:32:35.917Z,11.36
2019-03-17T00:35:05.629Z,11.47
2019-03-17T00:37:34.230Z,11.55
2019-03-17T00:40:02.858Z,11.60
2019-03-17T00:42:31.384Z,11.70
2019-03-17T00:44:59.945Z,11.74
2019-03-17T00:47:28.672Z,11.56
2019-03-17T00:49:57.272Z,11.56
2019-03-17T00:52:25.761Z,11.59
2019-03-17T00:54:54.371Z,11.44
2019-03-17T00:57:22.929Z,11.29
2019-03-17T00:59:51.485Z,11.14
2019-03-17T01:02:20.118Z,11.22
2019-03-17T01:04:56.059Z,11.25
2019-03-17T01:07:19.053Z,11.34
2019-03-17T01:09:47.651Z,11.31
2019-03-17T01:12:16.272Z,11.28
2019-03-17T01:14:44.834Z,11.25
2019-03-17T01:17:13.499Z,11.29
2019-03-17T01:19:42.027Z,11.38
2019-03-17T01:22:10.650Z,11.39
2019-03-17T01:24:39.129Z,11.39
2019-03-17T01:27:07.805Z,11.53
2019-03-17T01:29:36.406Z,11.68
2019-03-17T01:32:05.018Z,11.82
2019-03-17T01:34:33.571Z,12.02
2019-03-17T01:37:02.107Z,12.12
2019-03-17T01:39:30.653Z,12.16
2019-03-17T01:41:59.185Z,12.16
2019-03-17T01:44:27.739Z,12.01
2019-03-17T01:46:56.409Z,12.08
2019-03-17T01:49:24.952Z,12.00
2019-03-17T01:51:53.614Z,12.00
2019-03-17T01:54:22.099Z,11.90
2019-03-17T01:56:50.703Z,11.80
2019-03-17T01:59:19.301Z,11.84
2019-03-17T02:01:47.920Z,11.89
2019-03-17T02:04:16.597Z,11.74
2019-03-17T02:06:45.150Z,11.23
2019-03-17T02:09:13.712Z,10.92
2019-03-17T02:11:42.342Z,10.83
2019-03-17T02:14:10.951Z,10.72
2019-03-17T02:16:39.439Z,10.61
2019-03-17T02:19:08.075Z,10.44
2019-03-17T02:21:36.750Z,10.42
2019-03-17T02:24:05.381Z,10.60
2019-03-17T02:26:33.931Z,10.70
2019-03-17T02:29:02.486Z,10.72
2019-03-17T02:31:31.026Z,10.85
2019-03-17T02:33:59.690Z,11.10
2019-03-17T02:36:30.049Z,11.31
2019-03-17T02:38:59.074Z,11.44
2019-03-17T02:41:27.589Z,11.46
2019-03-17T02:43:56.168Z,11.44
2019-03-17T02:46:24.774Z,11.44
2019-03-17T02:48:53.381Z,11.32
2019-03-17T02:51:21.992Z,11.20
2019-03-17T02:53:50.560Z,10.88
2019-03-17T02:56:19.184Z,10.54
2019-03-17T02:58:47.778Z,10.47
2019-03-17T03:01:16.413Z,10.21
2019-03-17T03:03:45.082Z,9.72
2019-03-17T03:06:13.688Z,9.48
2019-03-17T03:08:42.310Z,9.28
2019-03-17T03:11:10.897Z,9.08
2019-03-17T03:13:39.500Z,8.70
2019-03-17T03:16:08.171Z,8.36
2019-03-17T03:18:36.845Z,7.84
2019-03-17T03:21:05.336Z,7.30
2019-03-17T03:23:33.835Z,7.29
2019-03-17T03:26:02.467Z,7.20
2019-03-17T03:28:31.148Z,6.89
2019-03-17T03:30:59.728Z,6.87
2019-03-17T03:33:28.201Z,6.91
2019-03-17T03:36:10.205Z,6.93
2019-03-17T03:38:27.101Z,6.91
2019-03-17T03:40:55.709Z,7.02
2019-03-17T03:43:24.337Z,7.05
2019-03-17T03:45:52.982Z,7.15
2019-03-17T03:48:21.607Z,7.08
2019-03-17T03:50:50.278Z,6.80
2019-03-17T03:53:18.839Z,6.52
2019-03-17T03:55:47.474Z,6.57
2019-03-17T03:58:16.147Z,6.86
2019-03-17T04:00:44.785Z,7.07
2019-03-17T04:03:14.028Z,7.10
2019-03-17T04:05:42.992Z,7.04
2019-03-17T04:08:11.550Z,6.99
2019-03-17T04:10:40.095Z,7.00
2019-03-17T04:13:08.653Z,7.38
2019-03-17T04:15:37.352Z,7.87
2019-03-17T04:18:05.969Z,8.28
2019-03-17T04:20:34.646Z,8.42
2019-03-17T04:23:03.264Z,8.77
2019-03-17T04:25:31.830Z,9.06
2019-03-17T04:28:00.451Z,9.29
2019-03-17T04:30:29.050Z,9.49
2019-03-17T04:32:57.710Z,9.71
2019-03-17T04:35:26.252Z,9.89
2019-03-17T04:37:54.973Z,10.05
2019-03-17T04:40:23.466Z,10.09
2019-03-17T04:42:51.931Z,10.16
2019-03-17T04:45:20.487Z,10.26
2019-03-17T04:47:49.038Z,10.30
2019-03-17T04:50:17.638Z,10.35
2019-03-17T04:52:46.206Z,10.51
2019-03-17T04:55:14.743Z,10.66
2019-03-17T04:57:43.244Z,10.81
2019-03-17T05:00:13.123Z,10.90
2019-03-17T05:02:41.738Z,10.98
2019-03-17T05:05:10.359Z,11.04
2019-03-17T05:07:39.033Z,11.07
2019-03-17T05:10:09.571Z,11.11
2019-03-17T05:12:38.282Z,11.18
2019-03-17T05:15:09.501Z,11.24
2019-03-17T05:17:37.982Z,11.33
2019-03-17T05:20:09.154Z,11.43
2019-03-17T05:22:37.752Z,11.50
2019-03-17T05:25:07.577Z,11.60
2019-03-17T05:27:36.248Z,11.65
2019-03-17T05:30:07.618Z,11.75
2019-03-17T05:32:36.239Z,11.90
2019-03-17T05:35:06.525Z,12.05
2019-03-17T05:37:35.151Z,12.22
2019-03-17T05:40:05.116Z,12.36
2019-03-17T05:42:33.602Z,12.53
2019-03-17T05:45:02.195Z,12.68
2019-03-17T05:47:30.740Z,12.86
2019-03-17T05:49:59.219Z,12.95
2019-03-17T05:52:27.785Z,13.02
2019-03-17T05:54:56.349Z,13.14
2019-03-17T05:57:24.979Z,13.23
2019-03-17T05:59:53.608Z,13.34
2019-03-17T06:02:22.243Z,13.44
2019-03-17T06:04:50.891Z,13.58
2019-03-17T06:07:19.449Z,13.71
2019-03-17T06:09:48.024Z,13.87
2019-03-17T06:12:16.505Z,14.07
2019-03-17T06:14:45.070Z,14.22
2019-03-17T06:17:13.738Z,14.33
2019-03-17T06:19:42.285Z,14.53
2019-03-17T06:22:10.933Z,14.71
2019-03-17T06:24:39.454Z,14.87
2019-03-17T06:27:08.027Z,14.84
2019-03-17T06:29:36.605Z,14.67
2019-03-17T06:32:05.260Z,14.77
2019-03-17T06:34:33.882Z,15.21
2019-03-17T06:37:02.405Z,15.77
2019-03-17T06:39:31.029Z,16.50
2019-03-17T06:41:59.606Z,17.57
2019-03-17T06:44:28.273Z,17.57
2019-03-17T06:46:57.721Z,18.19
2019-03-17T06:49:26.327Z,18.70
2019-03-17T06:51:54.995Z,18.18
2019-03-17T06:54:23.562Z,18.54
2019-03-17T06:56:52.050Z,19.13
2019-03-17T06:59:20.612Z,19.57
2019-03-17T07:01:49.110Z,20.36
2019-03-17T07:04:17.688Z,20.19
2019-03-17T07:06:46.247Z,20.62
2019-03-17T07:09:14.750Z,21.03
2019-03-17T07:11:43.358Z,20.97
2019-03-17T07:14:11.999Z,20.69
2019-03-17T07:16:40.670Z,21.34
2019-03-17T07:19:09.211Z,21.48
2019-03-17T07:21:37.883Z,21.54
2019-03-17T07:24:06.448Z,21.86
2019-03-17T07:26:37.889Z,22.14
2019-03-17T07:29:06.446Z,22.26
2019-03-17T07:31:35.103Z,21.91
2019-03-17T07:34:03.649Z,22.18
2019-03-17T07:36:32.195Z,22.52
2019-03-17T07:39:11.098Z,22.67
2019-03-17T07:41:31.075Z,22.20
2019-03-17T07:43:59.643Z,22.88
2019-03-17T07:46:28.127Z,22.83
2019-03-17T07:48:56.654Z,23.32
2019-03-17T07:51:25.207Z,23.25
2019-03-17T07:53:53.757Z,24.39
2019-03-17T07:56:22.379Z,24.77
2019-03-17T07:58:50.923Z,25.16
2019-03-17T08:01:19.451Z,24.70
2019-03-17T08:03:48.075Z,25.32
2019-03-17T08:06:16.666Z,26.22
2019-03-17T08:08:45.205Z,26.10
2019-03-17T08:11:13.964Z,27.03
2019-03-17T08:13:42.563Z,27.64
2019-03-17T08:16:11.119Z,28.42
2019-03-17T08:18:39.668Z,27.69
2019-03-17T08:21:08.198Z,28.10
2019-03-17T08:23:36.748Z,27.96
2019-03-17T08:26:05.423Z,28.94
2019-03-17T08:28:33.921Z,28.89
2019-03-17T08:31:02.405Z,29.49
2019-03-17T08:33:30.956Z,29.80
2019-03-17T08:35:59.678Z,31.01
2019-03-17T08:38:28.185Z,31.88
2019-03-17T08:40:56.778Z,30.79
2019-03-17T08:43:25.396Z,30.98
2019-03-17T08:45:53.957Z,31.90
2019-03-17T08:48:22.623Z,32.22
2019-03-17T08:50:51.184Z,32.96
2019-03-17T08:53:19.679Z,32.72
2019-03-17T08:55:48.158Z,31.97
2019-03-17T08:58:16.788Z,33.03
2019-03-17T09:00:45.411Z,34.19
2019-03-17T09:03:13.902Z,34.79
2019-03-17T09:05:42.589Z,33.65
2019-03-17T09:08:11.143Z,33.51
2019-03-17T09:10:39.791Z,34.42
2019-03-17T09:13:08.271Z,34.44
2019-03-17T09:15:36.824Z,34.07
2019-03-17T09:18:05.456Z,34.83
2019-03-17T09:20:33.938Z,35.09
2019-03-17T09:23:02.611Z,35.73
2019-03-17T09:25:31.177Z,35.04
2019-03-17T09:27:59.779Z,35.45
2019-03-17T09:30:28.451Z,36.90
2019-03-17T09:32:57.048Z,35.96
2019-03-17T09:35:25.610Z,36.58
2019-03-17T09:37:54.143Z,36.81
2019-03-17T09:40:22.746Z,36.95
2019-03-17T09:42:51.294Z,37.37
2019-03-17T09:45:19.864Z,37.69
2019-03-17T09:47:48.533Z,37.42
2019-03-17T09:50:20.642Z,36.84
2019-03-17T09:52:49.306Z,37.48
2019-03-17T09:55:18.077Z,37.43
2019-03-17T09:57:46.709Z,36.96
2019-03-17T10:00:16.477Z,37.66
2019-03-17T10:02:45.202Z,38.47
2019-03-17T10:05:13.967Z,38.32
2019-03-17T10:07:42.586Z,39.16
2019-03-17T10:10:15.501Z,40.04
2019-03-17T10:12:44.227Z,39.74
2019-03-17T10:15:14.656Z,40.76
2019-03-17T10:17:43.294Z,39.96
2019-03-17T10:20:22.136Z,41.07
2019-03-17T10:22:50.798Z,41.93
2019-03-17T10:25:19.424Z,42.13
2019-03-17T10:27:48.021Z,42.79
2019-03-17T10:30:18.658Z,41.60
2019-03-17T10:32:47.283Z,40.83
2019-03-17T10:35:15.931Z,40.66
2019-03-17T10:37:44.564Z,39.37
2019-03-17T10:40:15.304Z,39.72
2019-03-17T10:42:43.936Z,39.85
2019-03-17T10:45:13.368Z,40.35
2019-03-17T10:47:41.990Z,39.79
2019-03-17T10:50:17.535Z,40.95
2019-03-17T10:52:46.132Z,41.77
2019-03-17T10:55:14.759Z,41.80
2019-03-17T10:57:43.386Z,42.08
2019-03-17T11:00:14.661Z,42.14
2019-03-17T11:02:43.333Z,41.53
2019-03-17T11:05:11.966Z,40.57
2019-03-17T11:07:40.637Z,39.78
2019-03-17T11:10:10.972Z,41.27
2019-03-17T11:12:39.574Z,42.80
2019-03-17T11:15:14.164Z,43.36
2019-03-17T11:17:42.839Z,42.84
2019-03-17T11:20:12.860Z,42.83
2019-03-17T11:22:41.485Z,42.16
2019-03-17T11:25:11.940Z,41.58
2019-03-17T11:27:40.625Z,41.93
2019-03-17T11:30:12.209Z,41.53
2019-03-17T11:32:42.295Z,42.01
2019-03-17T11:35:12.399Z,43.45
2019-03-17T11:37:41.019Z,43.84
2019-03-17T11:40:19.416Z,44.47
2019-03-17T11:42:50.197Z,43.62
2019-03-17T11:45:18.734Z,42.82
2019-03-17T11:47:47.459Z,41.49
2019-03-17T11:50:20.212Z,41.69
2019-03-17T11:52:48.933Z,41.95
2019-03-17T11:55:17.798Z,42.44
2019-03-17T11:57:46.631Z,41.87
2019-03-17T12:00:17.167Z,41.98
2019-03-17T12:02:45.802Z,40.53
2019-03-17T12:05:14.448Z,40.79
2019-03-17T12:07:43.084Z,41.08
2019-03-17T12:10:16.170Z,40.02
2019-03-17T12:12:44.795Z,39.53
2019-03-17T12:15:24.644Z,38.96
2019-03-17T12:17:53.265Z,39.38
2019-03-17T12:20:21.906Z,39.76
2019-03-17T12:22:50.531Z,38.95
2019-03-17T12:25:19.774Z,38.23
2019-03-17T12:27:48.525Z,37.20
2019-03-17T12:30:22.224Z,37.00
2019-03-17T12:32:51.904Z,36.08
2019-03-17T12:35:20.577Z,33.34
2019-03-17T12:37:49.524Z,33.27
2019-03-17T12:40:18.167Z,34.13
2019-03-17T12:42:46.819Z,36.33
2019-03-17T12:45:15.459Z,37.67
2019-03-17T12:47:44.071Z,38.82
2019-03-17T12:50:20.359Z,38.44
2019-03-17T12:52:48.952Z,38.15
2019-03-17T12:55:17.605Z,37.97
2019-03-17T12:57:46.294Z,38.61
2019-03-17T13:00:16.982Z,40.33
2019-03-17T13:02:45.599Z,41.33
2019-03-17T13:05:14.572Z,43.06
2019-03-17T13:07:43.254Z,44.37
2019-03-17T13:10:15.934Z,44.55
2019-03-17T13:12:44.606Z,44.81
2019-03-17T13:15:13.686Z,45.48
2019-03-17T13:17:42.391Z,46.16
2019-03-17T13:20:21.484Z,46.19
2019-03-17T13:22:50.105Z,44.77
2019-03-17T13:25:18.846Z,44.77
2019-03-17T13:27:47.504Z,44.91
2019-03-17T13:30:17.123Z,43.07
2019-03-17T13:32:45.734Z,44.48
2019-03-17T13:35:14.456Z,44.33
2019-03-17T13:37:43.086Z,45.03
2019-03-17T13:40:28.368Z,45.94
2019-03-17T13:42:46.753Z,45.17
2019-03-17T13:45:15.526Z,45.59
2019-03-17T13:47:44.153Z,46.34
2019-03-17T13:50:19.940Z,44.63
2019-03-17T13:52:48.672Z,41.78
2019-03-17T13:55:17.354Z,38.83
2019-03-17T13:57:48.917Z,37.14
2019-03-17T14:00:17.480Z,36.01
2019-03-17T14:02:45.981Z,34.53
2019-03-17T14:05:14.837Z,33.32
2019-03-17T14:07:43.450Z,32.84
2019-03-17T14:10:14.771Z,33.96
2019-03-17T14:12:43.594Z,35.52
2019-03-17T14:15:14.030Z,36.98
2019-03-17T14:17:42.628Z,38.44
2019-03-17T14:20:13.829Z,40.22
2019-03-17T14:22:42.446Z,40.98
2019-03-17T14:25:19.779Z,41.40
2019-03-17T14:27:48.293Z,42.09
2019-03-17T14:30:17.671Z,42.41
2019-03-17T14:32:46.227Z,42.88
2019-03-17T14:35:14.857Z,43.44
2019-03-17T14:37:43.525Z,43.46
2019-03-17T14:40:16.280Z,42.48
2019-03-17T14:42:47.832Z,42.11
2019-03-17T14:45:17.771Z,42.38
2019-03-17T14:47:46.514Z,42.52
2019-03-17T14:50:17.608Z,42.01
2019-03-17T14:52:46.238Z,41.39
2019-03-17T14:55:14.857Z,41.32
2019-03-17T14:57:43.493Z,40.88
2019-03-17T15:00:20.585Z,40.76
2019-03-17T15:02:49.332Z,41.05
2019-03-17T15:05:17.959Z,41.43
2019-03-17T15:07:47.141Z,41.15
2019-03-17T15:10:25.952Z,40.45
2019-03-17T15:12:57.211Z,39.13
2019-03-17T15:15:25.831Z,39.55
2019-03-17T15:17:54.467Z,39.08
2019-03-17T15:20:27.824Z,38.54
2019-03-17T15:22:56.455Z,37.72
2019-03-17T15:25:25.131Z,37.83
2019-03-17T15:27:53.680Z,37.39
2019-03-17T15:30:29.325Z,37.43
2019-03-17T15:32:57.962Z,37.50
2019-03-17T15:35:26.583Z,37.74
2019-03-17T15:37:55.250Z,37.44
2019-03-17T15:40:23.881Z,37.33
2019-03-17T15:42:52.483Z,37.51
2019-03-17T15:45:27.043Z,37.46
2019-03-17T15:47:55.669Z,36.80
2019-03-17T15:50:25.553Z,35.77
2019-03-17T15:52:54.187Z,35.69
2019-03-17T15:55:22.792Z,35.56
2019-03-17T15:57:51.417Z,35.28
2019-03-17T16:00:26.267Z,34.75
2019-03-17T16:02:53.958Z,34.14
2019-03-17T16:05:22.581Z,33.84
2019-03-17T16:07:51.274Z,33.45
2019-03-17T16:10:24.976Z,32.72
2019-03-17T16:12:53.578Z,32.19
2019-03-17T16:15:22.205Z,31.41
2019-03-17T16:17:50.814Z,30.55
2019-03-17T16:20:20.834Z,29.69
2019-03-17T16:22:49.513Z,28.47
2019-03-17T16:25:33.221Z,26.76
2019-03-17T16:28:01.858Z,25.87
2019-03-17T16:30:31.691Z,24.74
2019-03-17T16:33:00.553Z,24.09
2019-03-17T16:35:29.241Z,23.28
2019-03-17T16:37:57.873Z,22.73
2019-03-17T16:40:33.484Z,22.23
2019-03-17T16:43:02.054Z,21.80
2019-03-17T16:45:30.668Z,21.38
2019-03-17T16:47:59.309Z,21.06
2019-03-17T16:50:27.934Z,20.61
2019-03-17T16:52:56.605Z,20.18
2019-03-17T16:55:25.192Z,19.94
2019-03-17T16:57:53.735Z,19.76
2019-03-17T17:00:23.462Z,19.37
2019-03-17T17:02:52.078Z,19.07
2019-03-17T17:05:21.615Z,18.87
2019-03-17T17:07:50.243Z,18.78
2019-03-17T17:10:21.111Z,18.61
2019-03-17T17:12:49.774Z,18.63
2019-03-17T17:15:20.937Z,18.68
2019-03-17T17:17:49.675Z,18.40
2019-03-17T17:20:21.020Z,18.21
2019-03-17T17:22:49.643Z,17.87
2019-03-17T17:25:18.265Z,17.80
2019-03-17T17:27:46.827Z,17.95
2019-03-17T17:30:17.429Z,18.01
2019-03-17T17:32:45.963Z,18.13
2019-03-17T17:35:14.598Z,18.15
2019-03-17T17:37:43.270Z,17.85
2019-03-17T17:40:20.358Z,17.66
2019-03-17T17:42:49.033Z,17.64
2019-03-17T17:45:19.928Z,17.54
2019-03-17T17:47:48.640Z,17.63
2019-03-17T17:50:27.864Z,17.63
2019-03-17T17:52:56.577Z,17.61
2019-03-17T17:55:25.290Z,17.53
2019-03-17T17:57:53.952Z,17.02
2019-03-17T18:00:36.616Z,17.02
2019-03-17T18:03:05.556Z,17.12
2019-03-17T18:05:34.218Z,17.12
2019-03-17T18:08:02.857Z,17.16
2019-03-17T18:10:31.531Z,17.16
2019-03-17T18:13:00.162Z,17.08
2019-03-17T18:15:30.304Z,16.65
2019-03-17T18:17:59.027Z,16.62
2019-03-17T18:20:27.615Z,16.62
2019-03-17T18:22:56.283Z,16.21
2019-03-17T18:25:26.007Z,15.95
2019-03-17T18:27:54.683Z,16.31
2019-03-17T18:30:27.356Z,16.39
2019-03-17T18:32:56.000Z,16.32
2019-03-17T18:35:24.669Z,16.19
2019-03-17T18:37:53.215Z,16.05
2019-03-17T18:40:25.038Z,16.08
2019-03-17T18:42:53.661Z,16.26
2019-03-17T18:45:29.263Z,16.48
2019-03-17T18:47:58.418Z,16.84
2019-03-17T18:50:29.592Z,16.84
2019-03-17T18:52:58.139Z,16.99
2019-03-17T18:55:26.829Z,17.11
2019-03-17T18:57:55.617Z,17.14
2019-03-17T19:00:25.265Z,17.35
2019-03-17T19:02:53.873Z,17.38
2019-03-17T19:05:22.642Z,17.38
2019-03-17T19:07:51.126Z,17.33
2019-03-17T19:10:23.470Z,17.26
2019-03-17T19:12:55.058Z,16.97
2019-03-17T19:15:24.103Z,16.97
2019-03-17T19:17:52.727Z,16.52
2019-03-17T19:20:22.075Z,15.72
2019-03-17T19:22:50.724Z,15.23
2019-03-17T19:25:21.300Z,14.65
2019-03-17T19:27:49.939Z,14.47
2019-03-17T19:30:19.566Z,14.30
2019-03-17T19:32:48.199Z,14.06
2019-03-17T19:35:19.931Z,14.02
2019-03-17T19:37:48.516Z,13.62
2019-03-17T19:40:22.404Z,13.62
2019-03-17T19:42:58.472Z,13.77
2019-03-17T19:45:21.427Z,14.05
2019-03-17T19:47:50.129Z,13.89
2019-03-17T19:50:23.351Z,13.86
2019-03-17T19:52:52.132Z,13.61
2019-03-17T19:55:20.805Z,13.35
2019-03-17T19:57:49.446Z,13.49
2019-03-17T20:00:22.643Z,13.41
2019-03-17T20:02:51.261Z,13.36
2019-03-17T20:05:19.894Z,13.26
2019-03-17T20:07:48.565Z,13.02
2019-03-17T20:10:25.920Z,12.96
2019-03-17T20:12:54.599Z,12.88
2019-03-17T20:15:23.239Z,12.72
2019-03-17T20:17:51.905Z,12.60
2019-03-17T20:20:20.461Z,12.53
2019-03-17T20:22:49.141Z,12.37
2019-03-17T20:25:17.762Z,12.22
2019-03-17T20:27:46.415Z,11.78
2019-03-17T20:30:16.392Z,11.45
2019-03-17T20:32:45.036Z,11.40
2019-03-17T20:35:14.170Z,11.56
2019-03-17T20:37:42.797Z,11.48
2019-03-17T20:40:13.656Z,11.31
2019-03-17T20:42:42.285Z,11.02
2019-03-17T20:45:12.382Z,10.71
2019-03-17T20:47:40.938Z,10.73
2019-03-17T20:50:20.094Z,10.58
2019-03-17T20:52:48.700Z,10.39
2019-03-17T20:55:17.324Z,10.16
2019-03-17T20:57:45.856Z,10.09
2019-03-17T21:00:18.239Z,10.02
2019-03-17T21:02:46.821Z,10.10
2019-03-17T21:05:15.499Z,10.05
2019-03-17T21:07:44.218Z,9.93
2019-03-17T21:10:14.150Z,9.75
2019-03-17T21:12:42.818Z,9.88
2019-03-17T21:15:12.844Z,9.83
2019-03-17T21:17:41.524Z,9.93
2019-03-17T21:20:21.600Z,9.81
2019-03-17T21:22:50.244Z,9.77
2019-03-17T21:25:18.799Z,9.77
2019-03-17T21:27:47.440Z,9.77
2019-03-17T21:30:21.477Z,9.76
2019-03-17T21:32:50.142Z,9.84
2019-03-17T21:35:18.862Z,9.69
2019-03-17T21:37:47.495Z,9.88
2019-03-17T21:40:16.161Z,9.95
2019-03-17T21:42:44.844Z,9.99
2019-03-17T21:45:14.172Z,9.78
2019-03-17T21:47:42.909Z,9.68
2019-03-17T21:50:14.390Z,9.74
2019-03-17T21:52:42.982Z,9.71
2019-03-17T21:55:12.655Z,9.65
2019-03-17T21:57:41.385Z,9.76
2019-03-17T22:00:17.716Z,9.74
2019-03-17T22:02:46.352Z,9.78
2019-03-17T22:05:15.487Z,9.62
2019-03-17T22:07:50.612Z,9.45
2019-03-17T22:10:18.908Z,9.02
2019-03-17T22:12:47.539Z,8.99
2019-03-17T22:15:16.985Z,8.89
2019-03-17T22:17:45.619Z,8.73
2019-03-17T22:20:15.053Z,8.70
2019-03-17T22:22:43.685Z,8.67
2019-03-17T22:25:13.418Z,8.24
2019-03-17T22:27:42.055Z,8.40
2019-03-17T22:30:18.562Z,8.57
2019-03-17T22:32:47.206Z,8.58
2019-03-17T22:35:15.843Z,8.30
2019-03-17T22:37:44.397Z,8.19
2019-03-17T22:40:15.951Z,8.27
2019-03-17T22:42:44.629Z,8.36
2019-03-17T22:45:14.161Z,8.42
2019-03-17T22:47:42.830Z,8.40
2019-03-17T22:50:16.244Z,8.34
2019-03-17T22:52:44.876Z,8.20
2019-03-17T22:55:13.708Z,8.21
2019-03-17T22:57:42.345Z,8.29
2019-03-17T23:00:35.322Z,8.30
2019-03-17T23:03:04.359Z,8.31
2019-03-17T23:05:32.984Z,8.36
2019-03-17T23:08:01.630Z,8.45
2019-03-17T23:10:30.163Z,8.59
2019-03-17T23:12:59.184Z,8.81
2019-03-17T23:15:27.862Z,9.05
2019-03-17T23:17:56.490Z,9.17
2019-03-17T23:20:25.181Z,9.23
2019-03-17T23:22:53.755Z,9.25
2019-03-17T23:25:22.347Z,9.18
2019-03-17T23:27:50.972Z,9.24
2019-03-17T23:30:20.660Z,9.05
2019-03-17T23:32:49.728Z,9.04
2019-03-17T23:35:18.500Z,9.12
2019-03-17T23:37:47.187Z,9.05
2019-03-17T23:40:16.943Z,9.02
2019-03-17T23:42:45.585Z,8.91
2019-03-17T23:45:14.420Z,8.91
2019-03-17T23:47:43.195Z,8.59
2019-03-17T23:50:15.474Z,8.26
2019-03-17T23:52:44.103Z,8.32
2019-03-17T23:55:15.876Z,7.98
2019-03-17T23:57:44.569Z,7.94
